Time;durP1;ratioP1;P1;durP2;ratioP2;P2;SDS_P1;SDS_P2;PMS_P1;PMS_P2;Temp;Humidity;BMP_temperature;BMP_pressure;BME280_temperature;BME280_humidity;BME280_pressure;Samples;Min_cycle;Max_cycle;Signal;HPM_P1;HPM_P2
2021/06/16 00:00:20;;;;;;;3.72;1.40;;;;;;;20.98;40.04;101812.56;4207549;28;20089;-66
2021/06/16 00:02:21;;;;;;;3.35;1.50;;;;;;;20.92;39.92;101812.81;4204709;28;20518;-64
2021/06/16 00:04:21;;;;;;;3.95;1.30;;;;;;;20.75;40.60;101810.22;4203938;28;20111;-64
2021/06/16 00:06:22;;;;;;;5.03;1.90;;;;;;;20.81;40.38;101814.72;4203873;28;20490;-64
2021/06/16 00:08:22;;;;;;;3.67;1.70;;;;;;;21.15;39.68;101817.13;4206750;28;20437;-65
2021/06/16 00:10:29;;;;;;;4.25;1.65;;;;;;;20.78;40.52;101801.34;4206034;28;20051;-65
2021/06/16 00:12:29;;;;;;;2.38;1.30;;;;;;;20.79;40.58;101798.28;4204123;28;20382;-65
2021/06/16 00:14:29;;;;;;;2.47;1.30;;;;;;;20.79;40.55;101789.94;4208013;28;20039;-66
2021/06/16 00:16:30;;;;;;;3.45;1.30;;;;;;;20.97;40.05;101796.97;4206217;28;20039;-65
2021/06/16 00:18:30;;;;;;;4.65;1.90;;;;;;;20.92;40.32;101794.16;4202095;28;20477;-65
2021/06/16 00:20:31;;;;;;;4.50;1.85;;;;;;;20.79;40.95;101794.66;4208072;28;20035;-65
2021/06/16 00:22:32;;;;;;;2.63;1.42;;;;;;;20.86;40.72;101786.06;4205389;28;20284;-65
2021/06/16 00:24:32;;;;;;;3.67;1.52;;;;;;;21.19;40.00;101790.41;4207417;28;20110;-66
2021/06/16 00:26:33;;;;;;;5.30;1.80;;;;;;;20.63;41.06;101777.84;4203760;28;20070;-66
2021/06/16 00:28:33;;;;;;;5.00;1.92;;;;;;;20.60;41.51;101778.41;4205739;28;20812;-66
2021/06/16 00:30:34;;;;;;;5.43;1.80;;;;;;;20.65;41.28;101777.59;4206463;28;20036;-66
2021/06/16 00:32:35;;;;;;;6.70;1.63;;;;;;;20.62;41.26;101780.91;4207546;28;20040;-65
2021/06/16 00:34:36;;;;;;;6.30;1.85;;;;;;;20.66;41.35;101776.50;4203200;28;20070;-65
2021/06/16 00:36:37;;;;;;;3.88;2.17;;;;;;;20.53;41.83;101774.13;4201572;28;20100;-66
2021/06/16 00:38:37;;;;;;;4.57;2.22;;;;;;;20.18;42.54;101768.06;4200789;28;20327;-66
2021/06/16 00:40:38;;;;;;;8.27;2.17;;;;;;;20.42;41.85;101764.88;4207532;28;20096;-65
2021/06/16 00:42:38;;;;;;;6.70;2.28;;;;;;;20.71;41.44;101762.59;4207742;28;20027;-65
2021/06/16 00:44:39;;;;;;;3.20;1.75;;;;;;;20.61;41.52;101766.16;4204407;28;20028;-65
2021/06/16 00:46:39;;;;;;;6.82;2.67;;;;;;;20.34;42.07;101763.44;4208217;28;20371;-66
2021/06/16 00:48:40;;;;;;;6.47;2.42;;;;;;;20.52;41.82;101756.63;4205442;28;20032;-63
2021/06/16 00:50:41;;;;;;;5.47;1.77;;;;;;;20.70;41.58;101765.66;4205296;28;20117;-66
2021/06/16 00:52:42;;;;;;;3.60;1.90;;;;;;;20.61;41.29;101757.81;4207451;28;20039;-64
2021/06/16 00:54:42;;;;;;;4.82;1.60;;;;;;;20.37;42.24;101760.13;4203176;28;20123;-64
2021/06/16 00:56:43;;;;;;;3.65;1.70;;;;;;;20.34;42.21;101763.44;4204990;28;20031;-66
2021/06/16 00:58:43;;;;;;;4.93;1.42;;;;;;;20.45;42.00;101770.78;4194747;28;20032;-66
2021/06/16 01:00:53;;;;;;;6.75;2.22;;;;;;;20.48;42.07;101767.47;4202529;28;20047;-66
2021/06/16 01:03:15;;;;;;;5.22;1.80;;;;;;;20.39;42.14;101765.41;4207190;28;20043;-67
2021/06/16 01:05:18;;;;;;;4.03;1.70;;;;;;;20.28;42.27;101762.59;4204143;28;20470;-66
2021/06/16 01:07:24;;;;;;;5.88;1.80;;;;;;;20.44;42.13;101762.69;4207689;28;20020;-65
2021/06/16 01:09:32;;;;;;;4.40;1.67;;;;;;;20.28;42.50;101754.25;4204598;28;20042;-65
2021/06/16 01:11:36;;;;;;;4.78;1.90;;;;;;;20.44;41.99;101762.69;4206839;28;20024;-66
2021/06/16 01:13:53;;;;;;;4.38;2.00;;;;;;;20.38;42.27;101759.03;4206732;28;20105;-68
2021/06/16 01:16:02;;;;;;;5.15;1.70;;;;;;;20.41;42.26;101766.00;4203680;28;20031;-69
2021/06/16 01:18:03;;;;;;;4.47;1.48;;;;;;;20.31;42.52;101750.06;4203946;28;20089;-67
2021/06/16 01:20:06;;;;;;;3.22;1.67;;;;;;;20.29;42.50;101747.56;4203373;28;20078;-67
2021/06/16 01:22:23;;;;;;;3.85;1.50;;;;;;;20.47;42.45;101748.25;4205798;28;20076;-66
2021/06/16 01:24:26;;;;;;;6.07;1.85;;;;;;;20.52;42.21;101739.94;4206890;28;20478;-66
2021/06/16 01:26:43;;;;;;;4.95;2.08;;;;;;;20.54;42.04;101736.88;4203311;28;20729;-70
2021/06/16 01:28:45;;;;;;;5.07;1.85;;;;;;;20.27;42.70;101738.66;4199409;28;20386;-69
2021/06/16 01:30:48;;;;;;;5.22;1.85;;;;;;;20.30;42.58;101737.28;4204142;28;20028;-67
2021/06/16 01:32:49;;;;;;;5.47;1.77;;;;;;;20.42;42.51;101734.28;4205503;28;20043;-67
2021/06/16 01:34:51;;;;;;;6.53;1.80;;;;;;;20.49;42.28;101734.91;4207582;28;20024;-67
2021/06/16 01:36:55;;;;;;;4.63;1.92;;;;;;;20.33;42.75;101728.41;4205074;28;20204;-68
2021/06/16 01:38:56;;;;;;;3.10;1.50;;;;;;;20.27;42.75;101727.53;4206144;28;20056;-67
2021/06/16 01:41:00;;;;;;;3.97;1.92;;;;;;;20.33;42.95;101727.56;4205348;28;20991;-66
2021/06/16 01:43:02;;;;;;;4.00;1.42;;;;;;;20.23;43.16;101729.16;4203821;28;20039;-66
2021/06/16 01:45:03;;;;;;;5.30;1.50;;;;;;;20.31;42.88;101725.06;4207692;28;20143;-67
2021/06/16 01:47:05;;;;;;;5.07;2.00;;;;;;;20.21;43.15;101725.81;4204811;28;20036;-67
2021/06/16 01:49:06;;;;;;;3.92;1.95;;;;;;;20.17;43.35;101719.13;4206929;28;20070;-67
2021/06/16 01:51:09;;;;;;;6.00;2.05;;;;;;;20.05;43.50;101715.69;4202885;28;20295;-66
2021/06/16 01:53:11;;;;;;;5.15;1.85;;;;;;;20.10;43.52;101727.69;4202039;28;20527;-67
2021/06/16 01:55:13;;;;;;;3.70;2.28;;;;;;;20.24;43.30;101722.50;4207449;28;20039;-67
2021/06/16 01:57:15;;;;;;;4.32;2.15;;;;;;;20.28;43.07;101720.88;4208105;28;20020;-67
2021/06/16 01:59:17;;;;;;;7.28;1.73;;;;;;;20.10;43.52;101715.75;4207897;28;20828;-67
2021/06/16 02:01:21;;;;;;;5.15;1.70;;;;;;;20.22;43.30;101721.94;4205309;28;20508;-67
2021/06/16 02:03:22;;;;;;;6.03;1.80;;;;;;;20.11;43.23;101720.19;4206980;28;20036;-66
2021/06/16 02:05:24;;;;;;;3.55;1.52;;;;;;;20.10;43.57;101721.31;4209679;28;20028;-66
2021/06/16 02:07:30;;;;;;;8.07;1.88;;;;;;;20.08;43.74;101717.94;4209064;28;20032;-66
2021/06/16 02:09:33;;;;;;;3.05;1.45;;;;;;;19.88;44.13;101725.03;4208299;28;20024;-69
2021/06/16 02:11:37;;;;;;;5.55;1.63;;;;;;;19.99;43.97;101725.09;4203915;28;20028;-68
2021/06/16 02:13:41;;;;;;;5.68;1.52;;;;;;;19.74;44.56;101718.16;4208344;28;20052;-69
2021/06/16 02:15:50;;;;;;;5.10;2.13;;;;;;;19.82;44.19;101720.50;4209827;28;20299;-64
2021/06/16 02:17:54;;;;;;;5.53;1.98;;;;;;;19.91;44.34;101718.06;4208282;28;20119;-63
2021/06/16 02:19:55;;;;;;;3.47;2.25;;;;;;;19.97;43.91;101713.41;4206911;28;20294;-63
2021/06/16 02:22:00;;;;;;;3.90;2.08;;;;;;;19.95;44.03;101713.66;4205386;28;20032;-63
2021/06/16 02:24:00;;;;;;;2.95;1.73;;;;;;;20.06;43.47;101709.03;4204532;28;20525;-64
2021/06/16 02:26:01;;;;;;;4.57;1.60;;;;;;;20.01;43.94;101707.06;4208191;28;20235;-64
2021/06/16 02:28:02;;;;;;;4.90;1.90;;;;;;;19.85;44.10;101703.31;4209756;28;20028;-65
2021/06/16 02:30:05;;;;;;;3.15;1.63;;;;;;;19.76;44.22;101700.16;4206932;28;20078;-64
2021/06/16 02:32:05;;;;;;;5.65;2.35;;;;;;;19.81;43.86;101695.75;4210026;28;20032;-66
2021/06/16 02:34:06;;;;;;;5.47;2.20;;;;;;;20.17;43.18;101699.66;4211199;28;20096;-62
2021/06/16 02:36:09;;;;;;;4.38;1.73;;;;;;;20.15;43.31;101701.88;4208284;28;20161;-63
2021/06/16 02:38:12;;;;;;;3.00;1.50;;;;;;;20.14;43.58;101694.63;4210112;28;20051;-62
2021/06/16 02:40:15;;;;;;;3.30;1.58;;;;;;;19.90;44.09;101683.91;4207854;28;20035;-62
2021/06/16 02:42:16;;;;;;;4.68;1.50;;;;;;;19.59;44.83;101689.16;4206452;28;20070;-62
2021/06/16 02:44:17;;;;;;;4.30;1.60;;;;;;;19.58;45.03;101690.25;4204671;28;20035;-64
2021/06/16 02:46:18;;;;;;;2.72;1.75;;;;;;;19.67;44.71;101690.63;4206493;28;20024;-63
2021/06/16 02:48:19;;;;;;;3.97;1.88;;;;;;;19.55;45.13;101679.69;4209415;28;20056;-64
2021/06/16 02:50:28;;;;;;;4.60;2.00;;;;;;;19.56;45.31;101686.91;4209719;28;20024;-63
2021/06/16 02:52:29;;;;;;;3.08;1.77;;;;;;;19.69;44.67;101680.06;4206309;28;20077;-63
2021/06/16 02:54:31;;;;;;;4.03;1.60;;;;;;;19.90;44.55;101683.06;4206727;28;20025;-62
2021/06/16 02:56:31;;;;;;;3.13;2.15;;;;;;;19.95;44.34;101681.16;4203680;28;20146;-63
2021/06/16 02:58:36;;;;;;;6.63;2.20;;;;;;;19.66;44.92;101683.38;4208373;28;20063;-63
2021/06/16 03:00:36;;;;;;;3.45;1.70;;;;;;;19.88;44.37;101685.25;4209653;28;20128;-65
2021/06/16 03:02:41;;;;;;;3.03;1.70;;;;;;;19.99;44.21;101675.94;4205517;28;20465;-61
2021/06/16 03:04:44;;;;;;;2.10;1.27;;;;;;;19.93;44.10;101683.38;4207671;28;20028;-55
2021/06/16 03:06:45;;;;;;;4.57;1.95;;;;;;;19.85;44.36;101681.09;4205477;28;20032;-54
2021/06/16 03:08:47;;;;;;;4.47;1.65;;;;;;;19.70;44.62;101676.22;4206404;28;20024;-56
2021/06/16 03:10:48;;;;;;;3.50;1.75;;;;;;;19.79;44.62;101676.56;4210294;28;20071;-54
2021/06/16 03:12:51;;;;;;;4.68;2.53;;;;;;;19.66;45.21;101672.28;4204995;28;20040;-59
2021/06/16 03:14:52;;;;;;;4.65;2.20;;;;;;;19.92;44.45;101676.13;4206491;28;20312;-63
2021/06/16 03:16:53;;;;;;;2.85;1.83;;;;;;;19.79;44.40;101676.56;4206432;28;20032;-63
2021/06/16 03:18:54;;;;;;;3.85;2.00;;;;;;;20.01;44.03;101673.69;4205645;28;20036;-68
2021/06/16 03:20:57;;;;;;;5.47;2.35;;;;;;;20.05;43.81;101674.84;4209601;28;20513;-67
2021/06/16 03:22:59;;;;;;;7.07;2.22;;;;;;;19.85;44.04;101672.75;4206638;28;20024;-65
2021/06/16 03:25:00;;;;;;;2.58;1.58;;;;;;;20.19;43.45;101675.22;4211744;28;20025;-64
2021/06/16 03:27:02;;;;;;;4.93;2.08;;;;;;;19.93;43.74;101661.16;4209962;28;20603;-64
2021/06/16 03:29:03;;;;;;;3.80;2.17;;;;;;;20.01;43.81;101667.31;4209805;28;20394;-65
2021/06/16 03:31:04;;;;;;;5.45;1.75;;;;;;;19.73;44.57;101666.50;4209001;28;20035;-65
2021/06/16 03:33:06;;;;;;;6.03;1.80;;;;;;;19.91;44.33;101666.13;4204708;28;20036;-66
2021/06/16 03:35:07;;;;;;;4.47;2.45;;;;;;;19.85;44.46;101660.78;4207157;28;20036;-65
2021/06/16 03:37:09;;;;;;;5.18;2.65;;;;;;;19.77;44.42;101653.75;4209245;28;20039;-65
2021/06/16 03:39:13;;;;;;;4.03;1.83;;;;;;;19.67;44.95;101653.69;4208302;28;20389;-66
2021/06/16 03:41:14;;;;;;;4.93;1.98;;;;;;;19.81;44.63;101652.13;4210569;28;20117;-65
2021/06/16 03:43:17;;;;;;;7.03;3.50;;;;;;;19.66;45.20;101650.06;4207999;28;20042;-64
2021/06/16 03:45:17;;;;;;;5.10;2.28;;;;;;;19.83;44.71;101644.34;4209783;28;20028;-64
2021/06/16 03:47:21;;;;;;;6.40;2.90;;;;;;;19.53;45.39;101634.69;4210421;28;20028;-65
2021/06/16 03:49:24;;;;;;;4.25;2.10;;;;;;;19.53;45.42;101645.78;4208602;28;20112;-65
2021/06/16 03:51:27;;;;;;;4.30;2.38;;;;;;;19.63;45.21;101650.59;4210287;28;20399;-65
2021/06/16 03:53:29;;;;;;;4.05;2.35;;;;;;;19.62;45.31;101642.50;4206741;28;20028;-64
2021/06/16 03:55:30;;;;;;;4.53;2.13;;;;;;;19.73;44.76;101641.53;4208867;28;20541;-64
2021/06/16 03:57:32;;;;;;;3.08;1.85;;;;;;;19.86;44.60;101632.75;4210132;28;20024;-65
2021/06/16 03:59:34;;;;;;;5.60;2.92;;;;;;;19.86;44.56;101634.69;4209502;28;20466;-65
2021/06/16 04:01:37;;;;;;;5.20;2.20;;;;;;;19.95;44.20;101631.13;4210636;28;20028;-63
2021/06/16 04:03:38;;;;;;;6.07;2.28;;;;;;;20.27;43.24;101621.06;4210074;28;20508;-63
2021/06/16 04:05:39;;;;;;;5.32;2.22;;;;;;;19.89;44.93;101625.81;4208014;28;20049;-63
2021/06/16 04:07:40;;;;;;;4.35;2.03;;;;;;;20.10;43.88;101618.47;4208785;28;20110;-63
2021/06/16 04:09:41;;;;;;;8.35;2.70;;;;;;;19.63;45.14;101624.75;4209053;28;20032;-63
2021/06/16 04:11:42;;;;;;;6.93;2.30;;;;;;;19.75;44.97;101625.41;4209466;28;20690;-63
2021/06/16 04:13:43;;;;;;;4.07;2.17;;;;;;;19.81;44.65;101620.75;4207888;28;20025;-64
2021/06/16 04:15:43;;;;;;;8.20;3.03;;;;;;;19.95;44.75;101630.31;4209176;28;20043;-63
2021/06/16 04:17:44;;;;;;;6.28;2.58;;;;;;;19.50;45.63;101621.31;4209749;28;20028;-64
2021/06/16 04:19:45;;;;;;;4.13;2.00;;;;;;;19.82;45.04;101620.47;4209691;28;20035;-64
2021/06/16 04:21:46;;;;;;;4.95;1.88;;;;;;;19.72;45.21;101624.00;4208508;28;20027;-63
2021/06/16 04:23:48;;;;;;;4.70;1.80;;;;;;;19.63;45.34;101627.53;4208361;28;20042;-63
2021/06/16 04:25:48;;;;;;;4.65;1.90;;;;;;;19.99;44.34;101625.91;4208669;28;20614;-63
2021/06/16 04:27:50;;;;;;;4.50;2.20;;;;;;;19.97;44.26;101624.50;4210070;28;20043;-63
2021/06/16 04:29:51;;;;;;;5.13;2.22;;;;;;;19.92;44.40;101622.50;4206696;28;20039;-63
2021/06/16 04:31:51;;;;;;;4.55;2.05;;;;;;;19.81;44.65;101623.53;4209185;28;20452;-63
2021/06/16 04:33:52;;;;;;;5.53;2.50;;;;;;;19.87;44.57;101623.31;4209265;28;20909;-65
2021/06/16 04:35:52;;;;;;;5.60;2.42;;;;;;;19.86;44.69;101620.81;4208811;28;20115;-65
2021/06/16 04:37:53;;;;;;;8.90;2.72;;;;;;;19.75;44.77;101617.91;4209073;28;20056;-64
2021/06/16 04:39:53;;;;;;;6.70;2.20;;;;;;;19.74;44.69;101624.59;4209203;28;20436;-66
2021/06/16 04:41:54;;;;;;;5.32;1.77;;;;;;;19.96;44.24;101623.66;4208319;28;20055;-68
2021/06/16 04:43:55;;;;;;;6.00;2.50;;;;;;;19.88;44.68;101618.59;4208635;28;20086;-68
2021/06/16 04:45:55;;;;;;;8.93;2.92;;;;;;;19.94;44.49;101620.28;4208107;28;20514;-69
2021/06/16 04:47:56;;;;;;;4.90;2.00;;;;;;;20.04;44.09;101614.81;4209634;28;20028;-68
2021/06/16 04:49:57;;;;;;;6.60;2.65;;;;;;;19.99;44.11;101613.94;4206032;28;20078;-69
2021/06/16 04:51:57;;;;;;;4.75;2.55;;;;;;;20.05;43.68;101613.72;4208561;28;20107;-66
2021/06/16 04:53:58;;;;;;;4.90;2.53;;;;;;;20.15;43.82;101610.16;4208322;28;20032;-67
2021/06/16 04:55:58;;;;;;;4.13;2.22;;;;;;;20.10;43.50;101607.34;4207601;28;20040;-66
2021/06/16 04:57:59;;;;;;;4.07;2.65;;;;;;;20.11;43.84;101604.31;4209399;28;20078;-66
2021/06/16 04:59:59;;;;;;;5.60;2.92;;;;;;;20.17;43.30;101605.16;4208378;28;20032;-65
2021/06/16 05:02:00;;;;;;;4.63;2.22;;;;;;;20.40;42.77;101606.66;4208067;28;20378;-63
2021/06/16 05:04:01;;;;;;;6.15;2.47;;;;;;;20.19;43.20;101597.41;4208921;28;20086;-64
2021/06/16 05:06:02;;;;;;;8.88;2.75;;;;;;;20.15;43.37;101596.25;4209522;28;20486;-64
2021/06/16 05:08:02;;;;;;;7.13;2.72;;;;;;;20.21;43.41;101586.84;4208317;28;20466;-64
2021/06/16 05:10:06;;;;;;;4.80;2.45;;;;;;;20.16;43.48;101589.59;4208462;28;20028;-65
2021/06/16 05:12:07;;;;;;;4.72;2.10;;;;;;;20.09;43.58;101583.44;4209232;28;20549;-64
2021/06/16 05:14:07;;;;;;;6.40;2.30;;;;;;;20.25;42.98;101587.13;4208551;28;20209;-64
2021/06/16 05:16:08;;;;;;;5.55;2.45;;;;;;;20.23;42.69;101590.16;4208068;28;20359;-64
2021/06/16 05:18:08;;;;;;;6.35;2.30;;;;;;;20.25;42.85;101593.53;4207059;28;20035;-64
2021/06/16 05:20:13;;;;;;;5.78;2.20;;;;;;;20.13;43.05;101588.19;4209301;28;20028;-64
2021/06/16 05:22:14;;;;;;;2.97;1.90;;;;;;;20.39;42.60;101588.31;4208134;28;20050;-64
2021/06/16 05:24:15;;;;;;;4.13;2.17;;;;;;;20.52;42.32;101588.94;4208144;28;20043;-64
2021/06/16 05:26:16;;;;;;;6.03;2.40;;;;;;;20.54;42.06;101593.09;4208268;28;20039;-64
2021/06/16 05:28:17;;;;;;;5.85;2.35;;;;;;;20.38;42.53;101585.81;4207466;28;20059;-66
2021/06/16 05:30:19;;;;;;;4.35;2.30;;;;;;;20.45;42.50;101581.66;4207517;28;20103;-66
2021/06/16 05:32:21;;;;;;;5.95;2.10;;;;;;;20.61;42.06;101582.59;4196958;28;20158;-66
2021/06/16 05:34:21;;;;;;;4.55;1.70;;;;;;;20.63;41.42;101585.91;4202279;28;20063;-67
2021/06/16 05:36:22;;;;;;;6.53;1.98;;;;;;;20.50;41.98;101578.06;4208232;28;20040;-67
2021/06/16 05:38:24;;;;;;;4.82;1.80;;;;;;;20.51;42.39;101584.47;4209085;28;20125;-67
2021/06/16 05:40:24;;;;;;;4.95;1.85;;;;;;;20.40;42.34;101578.03;4207633;28;20036;-66
2021/06/16 05:42:25;;;;;;;5.63;2.28;;;;;;;20.57;42.09;101589.78;4207512;28;20052;-67
2021/06/16 05:44:25;;;;;;;6.70;2.35;;;;;;;20.51;42.11;101582.50;4208951;28;20059;-66
2021/06/16 05:46:26;;;;;;;6.90;2.65;;;;;;;20.39;42.34;101587.47;4207344;28;20024;-66
2021/06/16 05:48:26;;;;;;;6.57;2.33;;;;;;;20.63;41.80;101580.34;4209046;28;20032;-64
2021/06/16 05:50:27;;;;;;;5.15;2.35;;;;;;;20.56;41.99;101576.97;4207005;28;20063;-64
2021/06/16 05:52:28;;;;;;;6.35;2.35;;;;;;;20.64;41.91;101576.47;4207699;28;20031;-65
2021/06/16 05:54:28;;;;;;;5.13;2.45;;;;;;;20.62;41.79;101583.41;4208387;28;20036;-64
2021/06/16 05:56:28;;;;;;;5.45;2.42;;;;;;;20.69;41.65;101577.59;4203432;28;20386;-65
2021/06/16 05:58:29;;;;;;;5.35;2.03;;;;;;;20.54;42.11;101570.00;4208192;28;20028;-63
2021/06/16 06:00:29;;;;;;;6.97;2.50;;;;;;;20.69;41.58;101572.88;4207791;28;20040;-65
2021/06/16 06:02:30;;;;;;;10.70;2.72;;;;;;;20.71;41.46;101555.91;4208123;28;20434;-65
2021/06/16 06:04:30;;;;;;;4.32;2.17;;;;;;;20.92;40.81;101571.53;4208543;28;20367;-65
2021/06/16 06:06:31;;;;;;;3.60;2.28;;;;;;;20.86;40.69;101571.81;4208519;28;20039;-66
2021/06/16 06:08:31;;;;;;;5.00;2.10;;;;;;;20.73;41.56;101567.59;4208353;28;20532;-65
2021/06/16 06:10:32;;;;;;;9.63;2.50;;;;;;;20.74;41.51;101572.06;4207644;28;20024;-66
2021/06/16 06:12:32;;;;;;;6.97;2.45;;;;;;;20.69;41.71;101566.47;4206603;28;20032;-66
2021/06/16 06:14:33;;;;;;;8.10;2.30;;;;;;;20.57;41.96;101564.75;4208551;28;20032;-67
2021/06/16 06:16:34;;;;;;;4.72;2.45;;;;;;;20.53;42.18;101559.97;4205288;28;20028;-71
2021/06/16 06:18:34;;;;;;;8.18;2.03;;;;;;;20.61;41.68;101553.94;4208654;28;20032;-68
2021/06/16 06:20:34;;;;;;;7.10;2.58;;;;;;;20.59;41.98;101557.00;4206952;28;20032;-69
2021/06/16 06:22:35;;;;;;;4.32;2.17;;;;;;;20.65;41.43;101553.13;4204619;28;20040;-70
2021/06/16 06:24:36;;;;;;;7.10;2.83;;;;;;;20.80;41.15;101548.69;4207846;28;20040;-68
2021/06/16 06:26:36;;;;;;;8.30;2.78;;;;;;;20.98;40.22;101539.00;4206225;28;20067;-67
2021/06/16 06:28:38;;;;;;;8.15;2.40;;;;;;;20.87;40.80;101526.16;4204198;28;20921;-66
2021/06/16 06:30:39;;;;;;;4.55;2.67;;;;;;;20.82;40.81;101538.97;4206475;28;20071;-65
2021/06/16 06:32:40;;;;;;;4.80;2.10;;;;;;;20.94;40.54;101529.50;4207218;28;20024;-65
2021/06/16 06:34:40;;;;;;;5.82;1.90;;;;;;;21.00;40.38;101540.38;4206375;28;20062;-65
2021/06/16 06:36:41;;;;;;;5.93;2.15;;;;;;;20.96;40.51;101528.13;4209013;28;20079;-65
2021/06/16 06:38:41;;;;;;;6.80;2.00;;;;;;;21.11;40.68;101529.25;4208710;28;20457;-65
2021/06/16 06:40:43;;;;;;;5.22;2.20;;;;;;;21.13;40.20;101525.09;4208211;28;20586;-64
2021/06/16 06:42:43;;;;;;;7.68;2.15;;;;;;;21.14;40.45;101523.13;4208936;28;20079;-64
2021/06/16 06:44:44;;;;;;;7.28;1.92;;;;;;;21.08;40.00;101524.22;4211625;28;20474;-64
2021/06/16 06:46:44;;;;;;;9.15;2.70;;;;;;;21.15;40.39;101525.63;4209282;28;20063;-65
2021/06/16 06:48:44;;;;;;;5.75;2.10;;;;;;;21.19;39.67;101518.41;4210082;28;20414;-65
2021/06/16 06:50:45;;;;;;;8.60;2.38;;;;;;;21.06;40.70;101518.94;4211069;28;20708;-65
2021/06/16 06:52:47;;;;;;;9.50;2.78;;;;;;;21.05;40.33;101525.63;4208992;28;20469;-64
2021/06/16 06:54:48;;;;;;;12.73;3.13;;;;;;;21.08;40.64;101519.50;4206894;28;20421;-65
2021/06/16 06:56:48;;;;;;;9.57;2.30;;;;;;;21.16;40.19;101515.31;4203121;28;20036;-65
2021/06/16 06:58:49;;;;;;;5.75;1.90;;;;;;;21.25;40.05;101527.56;4209328;28;20098;-67
2021/06/16 07:00:49;;;;;;;12.38;1.95;;;;;;;21.30;39.76;101512.84;4216524;28;20509;-67
2021/06/16 07:02:50;;;;;;;6.25;2.20;;;;;;;21.33;39.11;101506.72;4209677;28;20035;-67
2021/06/16 07:04:50;;;;;;;11.43;2.15;;;;;;;21.26;39.94;101517.28;4211742;28;20036;-66
2021/06/16 07:06:51;;;;;;;12.00;2.55;;;;;;;21.28;39.59;101501.94;4202510;28;20039;-66
2021/06/16 07:08:51;;;;;;;7.25;2.38;;;;;;;21.37;39.92;101511.44;4206725;28;20043;-67
2021/06/16 07:10:52;;;;;;;9.35;3.15;;;;;;;21.36;39.95;101509.78;4208810;28;20665;-63
2021/06/16 07:12:53;;;;;;;8.75;2.50;;;;;;;21.40;40.20;101509.22;4209871;28;20494;-65
2021/06/16 07:14:55;;;;;;;13.13;2.15;;;;;;;21.43;40.03;101511.47;4209990;28;20793;-64
2021/06/16 07:16:55;;;;;;;11.98;2.50;;;;;;;21.54;39.70;101511.13;4208577;28;20040;-67
2021/06/16 07:18:56;;;;;;;22.80;2.40;;;;;;;21.43;39.74;101509.50;4202713;28;20036;-62
2021/06/16 07:20:56;;;;;;;14.02;2.55;;;;;;;21.55;39.37;101510.03;4210065;28;20032;-61
2021/06/16 07:22:57;;;;;;;9.65;2.30;;;;;;;21.55;39.61;101512.00;4209937;28;20084;-65
2021/06/16 07:24:57;;;;;;;12.65;2.17;;;;;;;21.54;39.05;101510.31;4209127;28;20028;-65
2021/06/16 07:26:58;;;;;;;6.43;1.90;;;;;;;21.57;39.18;101506.13;4211132;28;20027;-66
2021/06/16 07:28:58;;;;;;;13.35;2.17;;;;;;;21.51;39.45;101483.03;4210414;28;20039;-62
2021/06/16 07:30:59;;;;;;;6.22;2.45;;;;;;;21.57;39.29;101506.97;4207433;28;20028;-60
2021/06/16 07:32:59;;;;;;;4.30;2.13;;;;;;;21.65;38.95;101505.56;4210247;28;20024;-62
2021/06/16 07:35:00;;;;;;;7.10;1.73;;;;;;;21.66;39.05;101508.06;4208875;28;20922;-63
2021/06/16 07:37:00;;;;;;;10.88;1.90;;;;;;;21.60;39.24;101497.22;4210489;28;20028;-65
2021/06/16 07:39:01;;;;;;;7.63;1.60;;;;;;;21.67;39.08;101497.75;4209571;28;20032;-66
2021/06/16 07:41:01;;;;;;;8.48;2.28;;;;;;;21.63;39.19;101497.47;4209020;28;20070;-63
2021/06/16 07:43:03;;;;;;;3.63;1.65;;;;;;;21.73;38.42;101502.19;4210571;28;20071;-60
2021/06/16 07:45:05;;;;;;;7.57;2.38;;;;;;;21.73;39.04;101497.47;4208992;28;20111;-61
2021/06/16 07:47:06;;;;;;;4.38;2.20;;;;;;;21.77;38.33;101496.91;4207965;28;20043;-62
2021/06/16 07:49:06;;;;;;;10.07;2.10;;;;;;;21.87;38.83;101491.28;4209323;28;20435;-60
2021/06/16 07:51:07;;;;;;;7.10;1.90;;;;;;;21.81;39.18;101489.63;4209672;28;20093;-64
2021/06/16 07:53:07;;;;;;;9.48;1.80;;;;;;;21.85;38.87;101487.94;4209164;28;20497;-66
2021/06/16 07:55:09;;;;;;;6.00;2.13;;;;;;;21.95;38.81;101485.13;4209615;28;20036;-65
2021/06/16 07:57:09;;;;;;;6.88;2.28;;;;;;;22.01;38.20;101478.44;4209340;28;20120;-63
2021/06/16 07:59:10;;;;;;;6.45;1.90;;;;;;;21.97;38.13;101477.31;4209528;28;20495;-63
2021/06/16 08:01:11;;;;;;;3.42;1.52;;;;;;;22.02;38.39;101471.72;4211588;28;20032;-64
2021/06/16 08:03:11;;;;;;;6.13;1.85;;;;;;;21.97;38.32;101476.50;4209053;28;20028;-65
2021/06/16 08:05:13;;;;;;;4.95;1.92;;;;;;;22.00;38.45;101467.59;4209702;28;20040;-67
2021/06/16 08:07:14;;;;;;;5.28;1.60;;;;;;;22.15;38.61;101469.44;4209258;28;20051;-63
2021/06/16 08:09:14;;;;;;;3.80;1.17;;;;;;;22.18;38.60;101480.03;4210141;28;20474;-62
2021/06/16 08:11:15;;;;;;;6.00;1.70;;;;;;;22.17;37.90;101473.63;4209527;28;20029;-61
2021/06/16 08:13:16;;;;;;;3.05;1.73;;;;;;;22.16;38.08;101471.13;4208633;28;20020;-64
2021/06/16 08:15:17;;;;;;;4.00;1.38;;;;;;;22.24;38.28;101473.31;4209079;28;20115;-65
2021/06/16 08:17:17;;;;;;;4.00;1.65;;;;;;;22.22;38.08;101470.81;4207740;28;20032;-62
2021/06/16 08:19:18;;;;;;;3.92;1.73;;;;;;;22.31;38.15;101484.16;4207892;28;20028;-61
2021/06/16 08:21:19;;;;;;;6.10;1.80;;;;;;;22.31;38.26;101473.00;4208917;28;20028;-61
2021/06/16 08:23:20;;;;;;;4.05;1.88;;;;;;;22.37;38.49;101466.25;4206483;28;20036;-65
2021/06/16 08:25:20;;;;;;;12.52;1.95;;;;;;;22.38;38.38;101463.16;4209186;28;20394;-64
2021/06/16 08:27:21;;;;;;;5.95;1.95;;;;;;;22.50;38.31;101464.78;4207380;28;20035;-62
2021/06/16 08:29:21;;;;;;;4.28;1.95;;;;;;;22.53;38.31;101469.78;4209122;28;20081;-67
2021/06/16 08:31:23;;;;;;;2.60;1.50;;;;;;;22.55;38.15;101467.53;4206670;28;20123;-63
2021/06/16 08:33:23;;;;;;;3.47;1.85;;;;;;;22.46;38.44;101464.50;4209058;28;20032;-66
2021/06/16 08:35:24;;;;;;;3.38;1.73;;;;;;;22.42;38.09;101447.53;4206383;28;20115;-64
2021/06/16 08:37:24;;;;;;;7.63;1.92;;;;;;;22.51;37.89;101472.88;4209076;28;20051;-62
2021/06/16 08:39:25;;;;;;;12.25;1.70;;;;;;;22.52;38.13;101473.69;4207091;28;20055;-67
2021/06/16 08:41:27;;;;;;;6.22;1.48;;;;;;;22.55;37.59;101465.56;4208727;28;20154;-65
2021/06/16 08:43:34;;;;;;;15.63;2.20;;;;;;;22.63;37.87;101472.50;4197665;28;20042;-72
2021/06/16 08:45:38;;;;;;;4.78;1.52;;;;;;;22.62;37.76;101468.06;4206141;28;20036;-66
2021/06/16 08:47:38;;;;;;;7.22;2.17;;;;;;;22.67;37.80;101465.25;4209063;28;20024;-62
2021/06/16 08:49:39;;;;;;;3.70;1.60;;;;;;;22.69;37.59;101454.63;4206030;28;20035;-64
2021/06/16 08:51:39;;;;;;;3.40;1.67;;;;;;;22.67;37.59;101459.66;4208428;28;20036;-60
2021/06/16 08:53:40;;;;;;;3.70;1.52;;;;;;;22.74;38.10;101448.16;4207758;28;20027;-66
2021/06/16 08:55:41;;;;;;;6.22;1.60;;;;;;;22.66;38.04;101438.47;4206554;28;20063;-68
2021/06/16 08:57:42;;;;;;;3.60;1.52;;;;;;;22.80;37.99;101447.84;4207244;28;20524;-58
2021/06/16 08:59:43;;;;;;;8.38;2.30;;;;;;;22.91;37.99;101448.59;4198100;28;20119;-64
2021/06/16 09:01:43;;;;;;;9.85;1.55;;;;;;;22.89;37.74;101450.00;4207876;28;20577;-63
2021/06/16 09:03:44;;;;;;;7.07;2.13;;;;;;;22.89;37.87;101450.00;4209528;28;20039;-65
2021/06/16 09:05:44;;;;;;;10.88;2.20;;;;;;;22.89;38.16;101452.81;4206683;28;20032;-64
2021/06/16 09:07:45;;;;;;;8.48;2.22;;;;;;;22.94;38.01;101448.03;4207250;28;20036;-66
2021/06/16 09:09:47;;;;;;;8.25;1.90;;;;;;;22.90;37.92;101448.91;4207568;28;20607;-68
2021/06/16 09:11:48;;;;;;;5.20;2.10;;;;;;;22.98;38.16;101451.06;4206823;28;20034;-64
2021/06/16 09:13:49;;;;;;;3.70;2.15;;;;;;;23.05;38.24;101448.75;4207865;28;20088;-65
2021/06/16 09:15:50;;;;;;;8.00;2.47;;;;;;;22.95;38.36;101440.47;4206425;28;20494;-67
2021/06/16 09:18:12;;;;;;;5.93;2.00;;;;;;;23.20;37.88;101444.16;4205225;28;20093;-62
2021/06/16 09:20:13;;;;;;;3.85;2.20;;;;;;;23.21;37.95;101452.22;4206235;28;20028;-65
2021/06/16 09:22:13;;;;;;;3.30;1.58;;;;;;;23.20;37.71;101452.53;4203947;28;20028;-66
2021/06/16 09:24:14;;;;;;;2.83;1.83;;;;;;;23.16;37.34;101447.53;4208354;28;20535;-65